Terminal Aerodrome Forecast
Issued by NWS

Home | Current Version | Previous Version | Graphics & Text | Print | Product List | Glossary On
Versions: 1 2 3 4 5 6 7 8 9 10 11 12 13 14 15 16 17 18 19 20 21 22 23 24 25 26 27
000
FTUS43 KICT 261724
TAFHUT
TAF
KHUT 261724Z 2618/2718 11009KT P6SM OVC005
     FM262000 11012KT P6SM SCT035 BKN250
     FM262100 11014KT P6SM VCTS SCT035 BKN050CB
     FM270000 06015KT P6SM VCTS SCT015 BKN030CB
     FM270600 02015KT P6SM VCSH SCT009 BKN015
     FM271400 01014KT P6SM SCT015 BKN080
     FM271700 01015KT P6SM SCT025=

USA.gov is the U.S. government's official web portal to all federal, state and local government web resources and services.